Pelican — WDB8062 — position and weather

sailwx.info

Track history (hours):
 
Tides and Currents Weather Stations Pressure Air Temp Water Temp Dewpoint Dewpoint Depression Visibility Wind Speed Wind Dir Waves Ship Positions

Pelican

Owner: Higman Barge Lines, Inc., Orange, TX. More information available from US FCC via Universal Licensing System.

Last reported at 2018-Feb-11 15:41 UTC. Time now 2018-Feb-19 14:14 UTC.
Position N 29°28' W 094°39'.

Length 23 m; draft 3.2 m.

Type: Towing. MMSI: 366952310.

Date/timePositionNaut miles runAvg speedWind from/ knotsBaromVisibWave heightAir tempDewpointWater temp
2018-Feb-11 15:41N 29°28' W 094°39'0 0.0
2018-Feb-11 15:29N 29°28' W 094°39'0 0.0
2018-Feb-11 14:05N 29°28' W 094°39'0 0.0
2018-Feb-11 13:09N 29°28' W 094°39'0 0.1
2018-Feb-11 13:00N 29°28' W 094°39'0 0.0
2018-Feb-11 11:53N 29°28' W 094°39'0 0.0
2018-Feb-11 11:27N 29°28' W 094°39'0 0.0
2018-Feb-11 11:00N 29°28' W 094°39'0 0.2
2018-Feb-11 10:25N 29°28' W 094°39'8 1.1
2018-Feb-11 02:42N 29°31' W 094°31'2 4.3
2018-Feb-11 02:14N 29°32' W 094°29'0 0.2
2018-Feb-11 01:56N 29°32' W 094°29'0 0.2
2018-Feb-11 01:22N 29°32' W 094°29'1 2.2
2018-Feb-11 01:00N 29°33' W 094°28'2 4.1
2018-Feb-11 00:24N 29°34' W 094°25'1 1.3
2018-Feb-10 23:56N 29°34' W 094°25'2 3.8
2018-Feb-10 23:30N 29°36' W 094°24'2 4.3
2018-Feb-10 23:00N 29°36' W 094°22'2 5.0
2018-Feb-10 22:30N 29°38' W 094°19'3 6.0
2018-Feb-10 22:00N 29°39' W 094°16'3 5.3
2018-Feb-10 21:30N 29°40' W 094°13'2 4.2
2018-Feb-10 21:00N 29°41' W 094°11'1 1.9
2018-Feb-10 20:30N 29°41' W 094°10'3 5.2
2018-Feb-10 20:00N 29°43' W 094°08'3 6.1
2018-Feb-10 19:30N 29°45' W 094°05'3 6.0
2018-Feb-10 19:00N 29°47' W 094°02'3 6.4
2018-Feb-10 18:30N 29°49' W 093°60'2 4.3
2018-Feb-10 18:00N 29°50' W 093°57'3 5.3
2018-Feb-10 17:30N 29°52' W 093°56'2 4.8
2018-Feb-10 17:00N 29°54' W 093°54'3 5.9
2018-Feb-10 16:30N 29°56' W 093°52'3 5.7
2018-Feb-10 16:00N 29°59' W 093°50'3 6.0
2018-Feb-10 15:30N 29°60' W 093°47'0 0.1
2018-Feb-10 14:56N 29°60' W 093°47'0 0.0
2018-Feb-10 14:30N 29°60' W 093°47'0 0.0
2018-Feb-10 14:00N 29°60' W 093°47'0 0.0
2018-Feb-10 13:30N 29°60' W 093°47'0 0.0
2018-Feb-10 13:00N 29°60' W 093°47'0 0.0
2018-Feb-10 12:30N 29°60' W 093°47'0 0.0
2018-Feb-10 12:00N 29°60' W 093°47'0 0.0
2018-Feb-10 11:30N 29°60' W 093°47'0 0.0
2018-Feb-10 11:00N 29°60' W 093°47'0 0.0
2018-Feb-10 10:30N 29°60' W 093°47'0 0.0
2018-Feb-10 10:00N 29°60' W 093°47'0 0.0
2018-Feb-10 09:30N 29°60' W 093°47'0 0.0
2018-Feb-10 09:00N 29°60' W 093°47'0 0.0
2018-Feb-10 08:30N 29°60' W 093°47'0 0.2
2018-Feb-10 08:00N 29°60' W 093°47'0 0.1
2018-Feb-10 07:30N 29°60' W 093°47'0 0.0
2018-Feb-10 07:00N 29°60' W 093°47'0 0.1
2018-Feb-10 06:30N 29°60' W 093°47'0 0.0
2018-Feb-10 06:00N 29°60' W 093°47'0 0.0
2018-Feb-10 05:30N 29°60' W 093°47'0 0.0
2018-Feb-10 05:00N 29°60' W 093°47'0 0.0
2018-Feb-10 04:30N 29°60' W 093°47'0 0.0
2018-Feb-10 04:00N 29°60' W 093°47'0 0.0
2018-Feb-10 03:29N 29°60' W 093°47'0 0.0
2018-Feb-10 03:00N 29°60' W 093°47'0 0.0
2018-Feb-10 02:30N 29°60' W 093°47'0 0.0
2018-Feb-10 02:00N 29°60' W 093°47'0 0.1
2018-Feb-10 01:30N 29°60' W 093°47'0 0.0
2018-Feb-10 01:00N 29°60' W 093°47'0 0.1
2018-Feb-10 00:30N 29°60' W 093°47'1 1.1
2018-Feb-10 00:00N 30°00' W 093°46'3 5.7
2018-Feb-09 23:30N 30°02' W 093°44'3 5.8
2018-Feb-09 23:00N 30°04' W 093°41'2 5.5
2018-Feb-09 22:43N 30°04' W 093°39'151 4.0
2018-Feb-08 09:00N 29°32' W 090°49'3 5.2
2018-Feb-08 08:30N 29°32' W 090°46'2 4.4
2018-Feb-08 08:00N 29°34' W 090°45'4 3.5
2018-Feb-08 07:00N 29°37' W 090°42'5 5.0
2018-Feb-08 06:00N 29°35' W 090°37'  
2018-Feb-05 08:07N 29°34' W 090°23'1 3.4
2018-Feb-05 07:45N 29°33' W 090°25'1 5.2
2018-Feb-05 07:30N 29°33' W 090°26'0 0.1
2018-Feb-05 06:58N 29°33' W 090°26'3 6.8
2018-Feb-05 06:30N 29°34' W 090°30'6 6.2
2018-Feb-05 05:30N 29°35' W 090°37'3 5.8
2018-Feb-05 05:00N 29°36' W 090°40'2 4.9
2018-Feb-05 04:30N 29°37' W 090°42'2 4.1
2018-Feb-05 03:59N 29°35' W 090°43'2 3.9
2018-Feb-05 03:30N 29°34' W 090°45'3 6.0
2018-Feb-05 03:00N 29°32' W 090°48'4 7.4
2018-Feb-05 02:30N 29°32' W 090°52'63 4.9
2018-Feb-04 13:35N 29°49' W 092°02'0 0.5
2018-Feb-04 13:29N 29°49' W 092°02'0 0.0
2018-Feb-04 12:45N 29°49' W 092°02'0 0.0
2018-Feb-04 12:29N 29°49' W 092°02'0 0.0
2018-Feb-04 11:51N 29°49' W 092°02'0 0.1
2018-Feb-04 11:05N 29°49' W 092°02'5 4.2
2018-Feb-04 09:59N 29°48' W 092°07'0 0.3
2018-Feb-04 08:59N 29°47' W 092°07'0 0.0
2018-Feb-04 08:29N 29°47' W 092°07'0 0.0
2018-Feb-04 07:59N 29°47' W 092°07'0 0.0
2018-Feb-04 07:29N 29°47' W 092°07'0 0.0
2018-Feb-04 06:43N 29°47' W 092°07'0 0.0
2018-Feb-04 06:27N 29°47' W 092°07'0 0.2
2018-Feb-04 05:59N 29°47' W 092°07'2 4.8
2018-Feb-04 05:29N 29°47' W 092°10'2 4.6
2018-Feb-04 04:59N 29°47' W 092°12'1 1.3
2018-Feb-04 04:29N 29°47' W 092°13'1 2.6
2018-Feb-04 03:59N 29°48' W 092°15'0 0.1
2018-Feb-04 03:29N 29°48' W 092°15'0 0.0
2018-Feb-04 02:59N 29°48' W 092°15'0 0.8
2018-Feb-04 02:29N 29°48' W 092°15'0 0.0
2018-Feb-04 01:59N 29°48' W 092°15'0 0.2
2018-Feb-04 01:29N 29°48' W 092°15'2 3.8
2018-Feb-04 00:59N 29°49' W 092°17'39 2.9
2018-Feb-03 11:32N 29°56' W 093°02'0 4.0
2018-Feb-03 11:28N 29°56' W 093°02'2 4.7
2018-Feb-03 10:58N 29°56' W 093°05'2 3.9
2018-Feb-03 10:30N 29°56' W 093°07'3 5.2
2018-Feb-03 10:00N 29°56' W 093°10'0 0.5
2018-Feb-03 09:29N 29°57' W 093°10'1 2.1
2018-Feb-03 09:00N 29°57' W 093°11'3 5.8
2018-Feb-03 08:30N 29°60' W 093°13'2 3.8
2018-Feb-03 08:00N 30°01' W 093°14'6 4.0
2018-Feb-03 06:30N 30°06' W 093°18'0 0.2
2018-Feb-03 06:00N 30°06' W 093°18'0 0.0
2018-Feb-03 05:30N 30°06' W 093°18'0 0.0
2018-Feb-03 05:00N 30°06' W 093°18'0 0.1
2018-Feb-03 04:00N 30°06' W 093°18'1 1.5
2018-Feb-03 03:30N 30°06' W 093°19'3 1.9
2018-Feb-03 02:00N 30°04' W 093°21'3 5.2
2018-Feb-03 01:30N 30°04' W 093°24'3 5.7
2018-Feb-03 01:00N 30°04' W 093°27'3 5.8
2018-Feb-03 00:30N 30°04' W 093°31'3 6.0
2018-Feb-03 00:00N 30°04' W 093°34'7 5.8
2018-Feb-02 22:50N 30°03' W 093°42'2 5.9
2018-Feb-02 22:28N 30°02' W 093°44'3 7.0
2018-Feb-02 22:00N 29°60' W 093°47'4 7.6
2018-Feb-02 21:30N 29°58' W 093°51'2 4.9
2018-Feb-02 21:00N 29°56' W 093°52'0 0.0
2018-Feb-02 20:31N 29°56' W 093°52'0 0.0
2018-Feb-02 20:00N 29°56' W 093°52'0 0.0
2018-Feb-02 19:00N 29°56' W 093°52'0 0.0
2018-Feb-02 18:30N 29°56' W 093°52'0 0.0
2018-Feb-02 18:00N 29°56' W 093°52'0 0.0
2018-Feb-02 17:30N 29°56' W 093°52'0 0.0
2018-Feb-02 17:00N 29°56' W 093°52'0 0.0
2018-Feb-02 16:30N 29°56' W 093°52'0 0.0
2018-Feb-02 15:30N 29°56' W 093°52'0 0.0
2018-Feb-02 14:29N 29°56' W 093°52'0 0.0
2018-Feb-02 13:59N 29°56' W 093°52'0 0.0
2018-Feb-02 13:30N 29°56' W 093°52'0 0.0
2018-Feb-02 13:00N 29°56' W 093°52'0 0.0
2018-Feb-02 12:30N 29°56' W 093°52'0 0.0
2018-Feb-02 12:00N 29°56' W 093°52'0 0.0
2018-Feb-02 11:29N 29°56' W 093°52'0 0.0
2018-Feb-02 11:00N 29°56' W 093°52'0 0.0
2018-Feb-02 10:30N 29°56' W 093°52'0 0.0
2018-Feb-02 10:00N 29°56' W 093°52'0 0.6
2018-Feb-02 09:30N 29°56' W 093°52'3 6.4
2018-Feb-02 09:00N 29°53' W 093°55'4 7.2
2018-Feb-02 08:30N 29°51' W 093°57'3 5.1
2018-Feb-02 08:00N 29°49' W 093°59'3 6.0
2018-Feb-02 07:30N 29°47' W 094°02'3 6.8
2018-Feb-02 07:00N 29°45' W 094°05'1 1.7
2018-Feb-02 06:30N 29°44' W 094°06'0 0.2
2018-Feb-02 06:00N 29°44' W 094°06'0 0.1
2018-Feb-02 05:30N 29°44' W 094°06'0 0.0
2018-Feb-02 05:00N 29°44' W 094°06'0 0.0
2018-Feb-02 04:27N 29°44' W 094°06'0 0.0
2018-Feb-02 04:00N 29°44' W 094°06'0 0.0
2018-Feb-02 03:30N 29°44' W 094°06'2 4.6
2018-Feb-02 03:00N 29°43' W 094°08'3 5.9
2018-Feb-02 02:30N 29°41' W 094°11'2 3.7
2018-Feb-02 02:00N 29°40' W 094°13'3 6.2
2018-Feb-02 01:30N 29°39' W 094°16'8 6.0
2018-Feb-02 00:13N 29°36' W 094°24'25 5.0
2018-Feb-01 19:09N 29°31' W 094°53'1 8.9
2018-Feb-01 19:00N 29°32' W 094°53'4 8.5
2018-Feb-01 18:30N 29°35' W 094°56'4 8.5
2018-Feb-01 18:00N 29°39' W 094°58'  
Track history (hours):
 
Tides and Currents Weather Stations Pressure Air Temp Water Temp Dewpoint Dewpoint Depression Visibility Wind Speed Wind Dir Waves Ship Positions

Pelican

Owner: Higman Barge Lines, Inc., Orange, TX. More information available from US FCC via Universal Licensing System.

Last reported at 2018-Feb-11 15:41 UTC. Time now 2018-Feb-19 14:14 UTC.
Position N 29°28' W 094°39'.

Length 23 m; draft 3.2 m.

Type: Towing. MMSI: 366952310.

Date/timePositionNaut miles runAvg speedWind from/ knotsBaromVisibWave heightAir tempDewpointWater temp
2018-Feb-11 15:41N 29°28' W 094°39'0 0.0
2018-Feb-11 15:29N 29°28' W 094°39'0 0.0
2018-Feb-11 14:05N 29°28' W 094°39'0 0.0
2018-Feb-11 13:09N 29°28' W 094°39'0 0.1
2018-Feb-11 13:00N 29°28' W 094°39'0 0.0
2018-Feb-11 11:53N 29°28' W 094°39'0 0.0
2018-Feb-11 11:27N 29°28' W 094°39'0 0.0
2018-Feb-11 11:00N 29°28' W 094°39'0 0.2
2018-Feb-11 10:25N 29°28' W 094°39'8 1.1
2018-Feb-11 02:42N 29°31' W 094°31'2 4.3
2018-Feb-11 02:14N 29°32' W 094°29'0 0.2
2018-Feb-11 01:56N 29°32' W 094°29'0 0.2
2018-Feb-11 01:22N 29°32' W 094°29'1 2.2
2018-Feb-11 01:00N 29°33' W 094°28'2 4.1
2018-Feb-11 00:24N 29°34' W 094°25'1 1.3
2018-Feb-10 23:56N 29°34' W 094°25'2 3.8
2018-Feb-10 23:30N 29°36' W 094°24'2 4.3
2018-Feb-10 23:00N 29°36' W 094°22'2 5.0
2018-Feb-10 22:30N 29°38' W 094°19'3 6.0
2018-Feb-10 22:00N 29°39' W 094°16'3 5.3
2018-Feb-10 21:30N 29°40' W 094°13'2 4.2
2018-Feb-10 21:00N 29°41' W 094°11'1 1.9
2018-Feb-10 20:30N 29°41' W 094°10'3 5.2
2018-Feb-10 20:00N 29°43' W 094°08'3 6.1
2018-Feb-10 19:30N 29°45' W 094°05'3 6.0
2018-Feb-10 19:00N 29°47' W 094°02'3 6.4
2018-Feb-10 18:30N 29°49' W 093°60'2 4.3
2018-Feb-10 18:00N 29°50' W 093°57'3 5.3
2018-Feb-10 17:30N 29°52' W 093°56'2 4.8
2018-Feb-10 17:00N 29°54' W 093°54'3 5.9
2018-Feb-10 16:30N 29°56' W 093°52'3 5.7
2018-Feb-10 16:00N 29°59' W 093°50'3 6.0
2018-Feb-10 15:30N 29°60' W 093°47'0 0.1
2018-Feb-10 14:56N 29°60' W 093°47'0 0.0
2018-Feb-10 14:30N 29°60' W 093°47'0 0.0
2018-Feb-10 14:00N 29°60' W 093°47'0 0.0
2018-Feb-10 13:30N 29°60' W 093°47'0 0.0
2018-Feb-10 13:00N 29°60' W 093°47'0 0.0
2018-Feb-10 12:30N 29°60' W 093°47'0 0.0
2018-Feb-10 12:00N 29°60' W 093°47'0 0.0
2018-Feb-10 11:30N 29°60' W 093°47'0 0.0
2018-Feb-10 11:00N 29°60' W 093°47'0 0.0
2018-Feb-10 10:30N 29°60' W 093°47'0 0.0
2018-Feb-10 10:00N 29°60' W 093°47'0 0.0
2018-Feb-10 09:30N 29°60' W 093°47'0 0.0
2018-Feb-10 09:00N 29°60' W 093°47'0 0.0
2018-Feb-10 08:30N 29°60' W 093°47'0 0.2
2018-Feb-10 08:00N 29°60' W 093°47'0 0.1
2018-Feb-10 07:30N 29°60' W 093°47'0 0.0
2018-Feb-10 07:00N 29°60' W 093°47'0 0.1
2018-Feb-10 06:30N 29°60' W 093°47'0 0.0
2018-Feb-10 06:00N 29°60' W 093°47'0 0.0
2018-Feb-10 05:30N 29°60' W 093°47'0 0.0
2018-Feb-10 05:00N 29°60' W 093°47'0 0.0
2018-Feb-10 04:30N 29°60' W 093°47'0 0.0
2018-Feb-10 04:00N 29°60' W 093°47'0 0.0
2018-Feb-10 03:29N 29°60' W 093°47'0 0.0
2018-Feb-10 03:00N 29°60' W 093°47'0 0.0
2018-Feb-10 02:30N 29°60' W 093°47'0 0.0
2018-Feb-10 02:00N 29°60' W 093°47'0 0.1
2018-Feb-10 01:30N 29°60' W 093°47'0 0.0
2018-Feb-10 01:00N 29°60' W 093°47'0 0.1
2018-Feb-10 00:30N 29°60' W 093°47'1 1.1
2018-Feb-10 00:00N 30°00' W 093°46'3 5.7
2018-Feb-09 23:30N 30°02' W 093°44'3 5.8
2018-Feb-09 23:00N 30°04' W 093°41'2 5.5
2018-Feb-09 22:43N 30°04' W 093°39'151 4.0
2018-Feb-08 09:00N 29°32' W 090°49'3 5.2
2018-Feb-08 08:30N 29°32' W 090°46'2 4.4
2018-Feb-08 08:00N 29°34' W 090°45'4 3.5
2018-Feb-08 07:00N 29°37' W 090°42'5 5.0
2018-Feb-08 06:00N 29°35' W 090°37'  
2018-Feb-05 08:07N 29°34' W 090°23'1 3.4
2018-Feb-05 07:45N 29°33' W 090°25'1 5.2
2018-Feb-05 07:30N 29°33' W 090°26'0 0.1
2018-Feb-05 06:58N 29°33' W 090°26'3 6.8
2018-Feb-05 06:30N 29°34' W 090°30'6 6.2
2018-Feb-05 05:30N 29°35' W 090°37'3 5.8
2018-Feb-05 05:00N 29°36' W 090°40'2 4.9
2018-Feb-05 04:30N 29°37' W 090°42'2 4.1
2018-Feb-05 03:59N 29°35' W 090°43'2 3.9
2018-Feb-05 03:30N 29°34' W 090°45'3 6.0
2018-Feb-05 03:00N 29°32' W 090°48'4 7.4
2018-Feb-05 02:30N 29°32' W 090°52'63 4.9
2018-Feb-04 13:35N 29°49' W 092°02'0 0.5
2018-Feb-04 13:29N 29°49' W 092°02'0 0.0
2018-Feb-04 12:45N 29°49' W 092°02'0 0.0
2018-Feb-04 12:29N 29°49' W 092°02'0 0.0
2018-Feb-04 11:51N 29°49' W 092°02'0 0.1
2018-Feb-04 11:05N 29°49' W 092°02'5 4.2
2018-Feb-04 09:59N 29°48' W 092°07'0 0.3
2018-Feb-04 08:59N 29°47' W 092°07'0 0.0
2018-Feb-04 08:29N 29°47' W 092°07'0 0.0
2018-Feb-04 07:59N 29°47' W 092°07'0 0.0
2018-Feb-04 07:29N 29°47' W 092°07'0 0.0
2018-Feb-04 06:43N 29°47' W 092°07'0 0.0
2018-Feb-04 06:27N 29°47' W 092°07'0 0.2
2018-Feb-04 05:59N 29°47' W 092°07'2 4.8
2018-Feb-04 05:29N 29°47' W 092°10'2 4.6
2018-Feb-04 04:59N 29°47' W 092°12'1 1.3
2018-Feb-04 04:29N 29°47' W 092°13'1 2.6
2018-Feb-04 03:59N 29°48' W 092°15'0 0.1
2018-Feb-04 03:29N 29°48' W 092°15'0 0.0
2018-Feb-04 02:59N 29°48' W 092°15'0 0.8
2018-Feb-04 02:29N 29°48' W 092°15'0 0.0
2018-Feb-04 01:59N 29°48' W 092°15'0 0.2
2018-Feb-04 01:29N 29°48' W 092°15'2 3.8
2018-Feb-04 00:59N 29°49' W 092°17'39 2.9
2018-Feb-03 11:32N 29°56' W 093°02'0 4.0
2018-Feb-03 11:28N 29°56' W 093°02'2 4.7
2018-Feb-03 10:58N 29°56' W 093°05'2 3.9
2018-Feb-03 10:30N 29°56' W 093°07'3 5.2
2018-Feb-03 10:00N 29°56' W 093°10'0 0.5
2018-Feb-03 09:29N 29°57' W 093°10'1 2.1
2018-Feb-03 09:00N 29°57' W 093°11'3 5.8
2018-Feb-03 08:30N 29°60' W 093°13'2 3.8
2018-Feb-03 08:00N 30°01' W 093°14'6 4.0
2018-Feb-03 06:30N 30°06' W 093°18'0 0.2
2018-Feb-03 06:00N 30°06' W 093°18'0 0.0
2018-Feb-03 05:30N 30°06' W 093°18'0 0.0
2018-Feb-03 05:00N 30°06' W 093°18'0 0.1
2018-Feb-03 04:00N 30°06' W 093°18'1 1.5
2018-Feb-03 03:30N 30°06' W 093°19'3 1.9
2018-Feb-03 02:00N 30°04' W 093°21'3 5.2
2018-Feb-03 01:30N 30°04' W 093°24'3 5.7
2018-Feb-03 01:00N 30°04' W 093°27'3 5.8
2018-Feb-03 00:30N 30°04' W 093°31'3 6.0
2018-Feb-03 00:00N 30°04' W 093°34'7 5.8
2018-Feb-02 22:50N 30°03' W 093°42'2 5.9
2018-Feb-02 22:28N 30°02' W 093°44'3 7.0
2018-Feb-02 22:00N 29°60' W 093°47'4 7.6
2018-Feb-02 21:30N 29°58' W 093°51'2 4.9
2018-Feb-02 21:00N 29°56' W 093°52'0 0.0
2018-Feb-02 20:31N 29°56' W 093°52'0 0.0
2018-Feb-02 20:00N 29°56' W 093°52'0 0.0
2018-Feb-02 19:00N 29°56' W 093°52'0 0.0
2018-Feb-02 18:30N 29°56' W 093°52'0 0.0
2018-Feb-02 18:00N 29°56' W 093°52'0 0.0
2018-Feb-02 17:30N 29°56' W 093°52'0 0.0
2018-Feb-02 17:00N 29°56' W 093°52'0 0.0
2018-Feb-02 16:30N 29°56' W 093°52'0 0.0
2018-Feb-02 15:30N 29°56' W 093°52'0 0.0
2018-Feb-02 14:29N 29°56' W 093°52'0 0.0
2018-Feb-02 13:59N 29°56' W 093°52'0 0.0
2018-Feb-02 13:30N 29°56' W 093°52'0 0.0
2018-Feb-02 13:00N 29°56' W 093°52'0 0.0
2018-Feb-02 12:30N 29°56' W 093°52'0 0.0
2018-Feb-02 12:00N 29°56' W 093°52'0 0.0
2018-Feb-02 11:29N 29°56' W 093°52'0 0.0
2018-Feb-02 11:00N 29°56' W 093°52'0 0.0
2018-Feb-02 10:30N 29°56' W 093°52'0 0.0
2018-Feb-02 10:00N 29°56' W 093°52'0 0.6
2018-Feb-02 09:30N 29°56' W 093°52'3 6.4
2018-Feb-02 09:00N 29°53' W 093°55'4 7.2
2018-Feb-02 08:30N 29°51' W 093°57'3 5.1
2018-Feb-02 08:00N 29°49' W 093°59'3 6.0
2018-Feb-02 07:30N 29°47' W 094°02'3 6.8
2018-Feb-02 07:00N 29°45' W 094°05'1 1.7
2018-Feb-02 06:30N 29°44' W 094°06'0 0.2
2018-Feb-02 06:00N 29°44' W 094°06'0 0.1
2018-Feb-02 05:30N 29°44' W 094°06'0 0.0
2018-Feb-02 05:00N 29°44' W 094°06'0 0.0
2018-Feb-02 04:27N 29°44' W 094°06'0 0.0
2018-Feb-02 04:00N 29°44' W 094°06'0 0.0
2018-Feb-02 03:30N 29°44' W 094°06'2 4.6
2018-Feb-02 03:00N 29°43' W 094°08'3 5.9
2018-Feb-02 02:30N 29°41' W 094°11'2 3.7
2018-Feb-02 02:00N 29°40' W 094°13'3 6.2
2018-Feb-02 01:30N 29°39' W 094°16'8 6.0
2018-Feb-02 00:13N 29°36' W 094°24'25 5.0
2018-Feb-01 19:09N 29°31' W 094°53'1 8.9
2018-Feb-01 19:00N 29°32' W 094°53'4 8.5
2018-Feb-01 18:30N 29°35' W 094°56'4 8.5
2018-Feb-01 18:00N 29°39' W 094°58'  

Dump ship's entire track history